createdAt,value
2023-04-11T00:01:34.803Z,99922.03
2023-04-11T00:06:37.102Z,99904.69
2023-04-11T00:11:39.464Z,99980.00
2023-04-11T00:16:42.937Z,99923.81
2023-04-11T00:21:45.533Z,99996.75
2023-04-11T00:26:47.825Z,100009.72
2023-04-11T00:31:50.447Z,99941.22
2023-04-11T00:36:52.924Z,99795.44
2023-04-11T00:42:07.477Z,99983.53
2023-04-11T00:47:09.941Z,99645.81
2023-04-11T00:52:14.009Z,99965.66
2023-04-11T00:57:16.491Z,99859.47
2023-04-11T01:02:19.411Z,99658.69
2023-04-11T01:07:23.033Z,99853.13
2023-04-11T01:12:25.922Z,99990.28
2023-04-11T01:17:28.255Z,100012.34
2023-04-11T01:22:30.943Z,99890.84
2023-04-11T01:27:34.465Z,99707.66
2023-04-11T01:32:37.010Z,99787.53
2023-04-11T01:37:39.846Z,99914.31
2023-04-11T01:42:42.770Z,99908.72
2023-04-11T01:47:45.398Z,100030.41
2023-04-11T01:52:51.702Z,100010.50
2023-04-11T01:57:54.003Z,99778.66
2023-04-11T02:02:56.798Z,99911.28
2023-04-11T02:07:59.106Z,99898.91
2023-04-11T02:13:01.399Z,100000.56
2023-04-11T02:18:03.863Z,99943.53
2023-04-11T02:23:06.349Z,99973.31
2023-04-11T02:28:08.609Z,99744.53
2023-04-11T02:33:10.965Z,99894.19
2023-04-11T02:38:13.412Z,99774.84
2023-04-11T02:43:16.562Z,99838.91
2023-04-11T02:48:18.816Z,99979.38
2023-04-11T02:53:22.019Z,99982.69
2023-04-11T02:58:26.273Z,99996.09
2023-04-11T03:03:32.574Z,99902.78
2023-04-11T03:08:36.443Z,99855.41
2023-04-11T03:13:39.746Z,99982.22
2023-04-11T03:18:42.160Z,99890.75
2023-04-11T03:23:47.164Z,99980.38
2023-04-11T03:28:51.109Z,99969.97
2023-04-11T03:33:55.197Z,99947.06
2023-04-11T03:38:58.560Z,99944.44
2023-04-11T03:44:01.259Z,99967.47
2023-04-11T03:49:03.743Z,99941.81
2023-04-11T03:54:06.629Z,99913.81
2023-04-11T03:59:13.174Z,99827.84
2023-04-11T04:04:26.768Z,99952.47
2023-04-11T04:09:42.255Z,99896.47
2023-04-11T04:14:46.336Z,99892.19
2023-04-11T04:19:52.040Z,99904.44
2023-04-11T04:24:58.419Z,99954.56
2023-04-11T04:30:08.031Z,99914.22
2023-04-11T04:35:30.094Z,99857.22
2023-04-11T04:40:40.492Z,99953.03
2023-04-11T04:45:44.693Z,99951.66
2023-04-11T04:50:48.819Z,99908.19
2023-04-11T04:55:51.761Z,99950.69
2023-04-11T05:00:56.427Z,99852.44
2023-04-11T05:06:04.370Z,99862.56
2023-04-11T05:11:07.470Z,99917.06
2023-04-11T05:16:11.548Z,99911.19
2023-04-11T05:21:15.015Z,99943.75
2023-04-11T05:26:19.950Z,99932.72
2023-04-11T05:31:22.609Z,99938.19
2023-04-11T05:36:26.158Z,99872.63
2023-04-11T05:41:28.585Z,99931.91
2023-04-11T05:46:31.057Z,99936.56
2023-04-11T05:51:33.529Z,99942.19
2023-04-11T05:56:37.765Z,99875.09
2023-04-11T06:01:40.551Z,99846.31
2023-04-11T06:06:43.806Z,99940.19
2023-04-11T06:11:48.297Z,99917.72
2023-04-11T06:16:50.602Z,99912.50
2023-04-11T06:21:52.972Z,99829.72
2023-04-11T06:26:55.263Z,99671.41
2023-04-11T06:31:59.141Z,99754.84
2023-04-11T06:37:01.527Z,99911.06
2023-04-11T06:42:04.500Z,99679.19
2023-04-11T06:47:08.572Z,99805.38
2023-04-11T06:52:11.024Z,99887.88
2023-04-11T06:57:13.857Z,99823.28
2023-04-11T07:02:16.315Z,99827.75
2023-04-11T07:07:18.682Z,99832.38
2023-04-11T07:12:21.152Z,99836.88
2023-04-11T07:17:23.612Z,99901.84
2023-04-11T07:22:26.053Z,99761.22
2023-04-11T07:27:29.204Z,99878.44
2023-04-11T07:32:31.542Z,99747.41
2023-04-11T07:37:34.268Z,99861.13
2023-04-11T07:42:36.673Z,99682.94
2023-04-11T07:47:39.045Z,99693.50
2023-04-11T07:52:41.400Z,99638.56
2023-04-11T07:57:43.726Z,99810.69
2023-04-11T08:02:46.496Z,99833.44
2023-04-11T08:07:48.907Z,99848.28
2023-04-11T08:12:51.261Z,99844.78
2023-04-11T08:17:56.975Z,99814.22
2023-04-11T08:22:59.807Z,99795.00
2023-04-11T08:28:02.736Z,99794.13
2023-04-11T08:33:05.196Z,99801.97
2023-04-11T08:38:07.485Z,99799.34
2023-04-11T08:43:12.584Z,99789.72
2023-04-11T08:48:15.347Z,99674.47
2023-04-11T08:53:19.228Z,99774.75
2023-04-11T08:58:21.776Z,99800.75
2023-04-11T09:03:24.447Z,99799.81
2023-04-11T09:08:38.349Z,99798.94
2023-04-11T09:13:40.755Z,99740.50
2023-04-11T09:18:45.440Z,99730.94
2023-04-11T09:23:47.794Z,99775.25
2023-04-11T09:28:54.106Z,99703.66
2023-04-11T09:33:59.363Z,99768.00
2023-04-11T09:39:17.330Z,99739.97
2023-04-11T09:44:19.658Z,99710.19
2023-04-11T09:49:23.580Z,99751.06
2023-04-11T09:54:27.751Z,99737.88
2023-04-11T09:59:30.525Z,99730.84
2023-04-11T10:04:34.966Z,99698.53
2023-04-11T10:09:43.385Z,99718.56
2023-04-11T10:14:45.965Z,99695.16
2023-04-11T10:19:49.175Z,99697.72
2023-04-11T10:25:17.445Z,99689.69
2023-04-11T10:30:39.804Z,99670.59
2023-04-11T10:36:11.103Z,99682.47
2023-04-11T10:41:34.170Z,99689.47
2023-04-11T10:46:44.884Z,99622.34
2023-04-11T10:51:47.445Z,99669.53
2023-04-11T10:56:51.001Z,99659.09
2023-04-11T11:01:56.192Z,99664.38
2023-04-11T11:07:01.698Z,99638.31
2023-04-11T11:12:08.730Z,99647.88
2023-04-11T11:17:16.084Z,99477.31
2023-04-11T11:22:19.597Z,99468.66
2023-04-11T11:27:23.916Z,99566.13
2023-04-11T11:32:30.307Z,99634.03
2023-04-11T11:37:32.709Z,99510.41
2023-04-11T11:42:37.007Z,99411.16
2023-04-11T11:47:43.755Z,99654.16
2023-04-11T11:52:49.049Z,99536.41
2023-04-11T11:57:51.469Z,99588.59
2023-04-11T12:02:55.785Z,99364.16
2023-04-11T12:07:59.956Z,99407.47
2023-04-11T12:13:02.383Z,99485.72
2023-04-11T12:18:07.140Z,99630.34
2023-04-11T12:23:09.650Z,99271.69
2023-04-11T12:28:12.616Z,99213.56
2023-04-11T12:33:15.101Z,99604.91
2023-04-11T12:38:18.196Z,99556.66
2023-04-11T12:43:21.046Z,99559.25
2023-04-11T12:48:23.401Z,99509.53
2023-04-11T12:53:25.719Z,99511.19
2023-04-11T12:58:29.169Z,99467.50
2023-04-11T13:03:31.737Z,99512.41
2023-04-11T13:08:34.174Z,99526.88
2023-04-11T13:13:37.021Z,99506.72
2023-04-11T13:18:39.502Z,99507.50
2023-04-11T13:23:41.964Z,99516.81
2023-04-11T13:28:44.349Z,99442.03
2023-04-11T13:33:48.339Z,99414.50
2023-04-11T13:38:51.690Z,99511.28
2023-04-11T13:43:54.518Z,99433.78
2023-04-11T13:48:57.254Z,99461.50
2023-04-11T13:54:02.697Z,99461.50
2023-04-11T13:59:05.187Z,99374.78
2023-04-11T14:04:07.921Z,99501.63
2023-04-11T14:09:10.789Z,99478.34
2023-04-11T14:14:13.120Z,99396.06
2023-04-11T14:19:16.169Z,99500.34
2023-04-11T14:24:22.394Z,99351.03
2023-04-11T14:29:26.342Z,99500.78
2023-04-11T14:34:29.100Z,99183.97
2023-04-11T14:39:32.043Z,99523.06
2023-04-11T14:44:35.818Z,99500.38
2023-04-11T14:49:38.149Z,99488.22
2023-04-11T14:54:40.550Z,99480.41
2023-04-11T14:59:45.657Z,99466.59
2023-04-11T15:04:48.077Z,99333.88
2023-04-11T15:09:50.394Z,99473.59
2023-04-11T15:14:52.845Z,99470.19
2023-04-11T15:19:55.431Z,99430.22
2023-04-11T15:24:57.881Z,99473.75
2023-04-11T15:30:02.588Z,99249.63
2023-04-11T15:35:05.709Z,99389.53
2023-04-11T15:40:12.558Z,99080.63
2023-04-11T15:45:15.052Z,99160.44
2023-04-11T15:50:17.904Z,99155.41
2023-04-11T15:55:20.383Z,99403.19
2023-04-11T16:00:27.644Z,99470.09
2023-04-11T16:05:33.441Z,98878.63
2023-04-11T16:10:35.936Z,99212.97
2023-04-11T16:15:38.390Z,99192.31
2023-04-11T16:20:41.905Z,99469.84
2023-04-11T16:25:45.538Z,99487.19
2023-04-11T16:30:48.725Z,99364.59
2023-04-11T16:35:51.442Z,99217.75
2023-04-11T16:40:54.023Z,99296.06
2023-04-11T16:45:56.491Z,99003.97
2023-04-11T16:50:58.965Z,99276.09
2023-04-11T16:56:01.494Z,99352.75
2023-04-11T17:01:04.277Z,99017.91
2023-04-11T17:06:16.804Z,99057.00
2023-04-11T17:11:19.526Z,99437.34
2023-04-11T17:16:22.095Z,99442.53
2023-04-11T17:21:24.797Z,99499.22
2023-04-11T17:26:27.271Z,99472.19
2023-04-11T17:31:30.199Z,99397.25
2023-04-11T17:36:32.598Z,99393.75
2023-04-11T17:41:35.027Z,99480.00
2023-04-11T17:46:37.675Z,99500.06
2023-04-11T17:51:48.884Z,99520.97
2023-04-11T17:56:55.247Z,99527.06
2023-04-11T18:01:57.908Z,99410.22
2023-04-11T18:07:01.105Z,99506.06
2023-04-11T18:12:03.528Z,99507.78
2023-04-11T18:17:05.917Z,99396.09
2023-04-11T18:22:08.579Z,99513.81
2023-04-11T18:27:11.371Z,99463.16
2023-04-11T18:32:14.688Z,99522.44
2023-04-11T18:37:18.047Z,99474.44
2023-04-11T18:42:20.359Z,99427.31
2023-04-11T18:47:22.776Z,99380.91
2023-04-11T18:52:25.844Z,99399.28
2023-04-11T18:57:33.752Z,99505.69
2023-04-11T19:02:37.720Z,99506.50
2023-04-11T19:07:43.180Z,99483.66
2023-04-11T19:12:45.643Z,99423.34
2023-04-11T19:17:48.064Z,99467.00
2023-04-11T19:22:51.946Z,99360.44
2023-04-11T19:27:54.256Z,99484.25
2023-04-11T19:32:57.586Z,99346.38
2023-04-11T19:38:02.684Z,99492.06
2023-04-11T19:43:05.276Z,99442.22
2023-04-11T19:48:07.677Z,99495.41
2023-04-11T19:53:10.179Z,99495.31
2023-04-11T19:58:12.617Z,99440.25
2023-04-11T20:03:15.254Z,99468.13
2023-04-11T20:08:18.185Z,99398.22
2023-04-11T20:13:20.589Z,99506.38
2023-04-11T20:18:22.956Z,99488.78
2023-04-11T20:23:25.259Z,98955.78
2023-04-11T20:28:27.655Z,99510.38
2023-04-11T20:33:30.205Z,99336.44
2023-04-11T20:38:32.702Z,99272.59
2023-04-11T20:43:42.162Z,99528.25
2023-04-11T20:48:44.461Z,99506.75
2023-04-11T20:53:46.906Z,99512.47
2023-04-11T20:58:49.377Z,99469.47
2023-04-11T21:03:52.028Z,99264.13
2023-04-11T21:08:54.489Z,99371.41
2023-04-11T21:13:57.044Z,99463.09
2023-04-11T21:18:59.442Z,99518.09
2023-04-11T21:24:02.266Z,99520.53
2023-04-11T21:29:04.623Z,99449.75
2023-04-11T21:34:07.214Z,99522.03
2023-04-11T21:39:09.624Z,99410.88
2023-04-11T21:44:11.957Z,99437.66
2023-04-11T21:49:14.452Z,99462.13
2023-04-11T21:54:16.854Z,99411.13
2023-04-11T21:59:19.324Z,99463.44
2023-04-11T22:04:21.870Z,99352.16
2023-04-11T22:09:24.944Z,99499.09
2023-04-11T22:14:29.527Z,99505.84
2023-04-11T22:19:34.054Z,99258.31
2023-04-11T22:24:38.649Z,99490.03
2023-04-11T22:29:41.695Z,99510.97
2023-04-11T22:34:44.002Z,99464.44
2023-04-11T22:39:47.100Z,99285.81
2023-04-11T22:44:49.376Z,99461.56
2023-04-11T22:49:51.713Z,99237.63
2023-04-11T22:54:55.228Z,99389.66
2023-04-11T23:00:00.515Z,99462.16
2023-04-11T23:05:04.189Z,99511.59
2023-04-11T23:10:09.455Z,99470.69
2023-04-11T23:15:12.851Z,99475.09
2023-04-11T23:20:15.413Z,99473.16
2023-04-11T23:25:17.791Z,99518.47
2023-04-11T23:30:20.710Z,99473.94
2023-04-11T23:35:24.013Z,99240.22
2023-04-11T23:40:26.403Z,99375.69
2023-04-11T23:45:28.753Z,99522.72
2023-04-11T23:50:31.056Z,99338.53
2023-04-11T23:55:33.372Z,99507.22
